Time;durP1;ratioP1;P1;durP2;ratioP2;P2;SDS_P1;SDS_P2;PMS_P1;PMS_P2;Temp;Humidity;BMP_temperature;BMP_pressure;BME280_temperature;BME280_humidity;BME280_pressure;Samples;Min_cycle;Max_cycle;Signal;HPM_P1;HPM_P2
2021/03/02 00:01:00;;;;;;;20.60;7.67;;;;;;;0.97;100.00;97591.59;4994561;28;20588;-72
2021/03/02 00:03:27;;;;;;;19.83;8.00;;;;;;;0.99;100.00;97595.78;4990431;28;20665;-72
2021/03/02 00:05:54;;;;;;;18.90;7.57;;;;;;;1.04;100.00;97593.75;4992304;28;20257;-72
2021/03/02 00:08:21;;;;;;;17.13;7.07;;;;;;;1.05;100.00;97592.84;4990871;28;20673;-72
2021/03/02 00:10:48;;;;;;;17.83;7.80;;;;;;;1.11;100.00;97596.84;4991373;28;20203;-72
2021/03/02 00:13:15;;;;;;;18.37;8.33;;;;;;;0.98;100.00;97593.28;4989069;28;20596;-72
2021/03/02 00:15:41;;;;;;;18.40;7.63;;;;;;;1.07;100.00;97587.56;4992353;28;20232;-73
2021/03/02 00:18:07;;;;;;;17.80;8.03;;;;;;;1.09;100.00;97596.13;4992019;28;20686;-72
2021/03/02 00:20:35;;;;;;;17.60;7.27;;;;;;;1.07;100.00;97590.16;4993155;28;20205;-72
2021/03/02 00:23:06;;;;;;;15.77;7.67;;;;;;;1.03;100.00;97591.25;4993074;28;20226;-72
2021/03/02 00:25:34;;;;;;;20.57;8.23;;;;;;;0.96;100.00;97595.13;4990474;28;20231;-72
2021/03/02 00:28:02;;;;;;;17.97;7.20;;;;;;;0.95;100.00;97591.69;4991802;28;20199;-73
2021/03/02 00:30:29;;;;;;;16.00;7.63;;;;;;;1.01;100.00;97595.72;4991934;28;20990;-72
2021/03/02 00:32:58;;;;;;;19.97;8.43;;;;;;;1.08;100.00;97581.47;4991920;28;20217;-72
2021/03/02 00:35:24;;;;;;;14.40;7.10;;;;;;;1.04;100.00;97590.34;4991099;28;20237;-72
2021/03/02 00:37:50;;;;;;;16.47;7.77;;;;;;;0.95;100.00;97586.50;4992368;28;20666;-72
2021/03/02 00:40:18;;;;;;;13.83;6.80;;;;;;;0.87;100.00;97590.47;4991648;28;20247;-72
2021/03/02 00:42:44;;;;;;;19.63;7.40;;;;;;;0.76;100.00;97595.41;4992573;28;20234;-72
2021/03/02 00:45:11;;;;;;;16.03;7.53;;;;;;;0.73;100.00;97598.19;4991489;28;20207;-72
2021/03/02 00:47:37;;;;;;;21.03;7.90;;;;;;;0.76;100.00;97591.06;4989773;28;20254;-72
2021/03/02 00:50:04;;;;;;;12.87;7.23;;;;;;;0.68;100.00;97589.81;4991491;28;20208;-72
2021/03/02 00:52:30;;;;;;;19.20;8.43;;;;;;;0.67;100.00;97594.16;4996025;28;20608;-72
2021/03/02 00:54:56;;;;;;;16.63;7.87;;;;;;;0.64;100.00;97593.50;4992857;28;20226;-72
2021/03/02 00:57:23;;;;;;;18.13;7.43;;;;;;;0.70;100.00;97590.56;4990830;28;20210;-72
2021/03/02 00:59:49;;;;;;;17.50;8.03;;;;;;;0.69;100.00;97594.09;4991780;28;20547;-72
2021/03/02 01:02:15;;;;;;;16.20;7.80;;;;;;;0.75;100.00;97589.41;4991010;28;20289;-72
2021/03/02 01:04:41;;;;;;;18.60;7.73;;;;;;;0.76;100.00;97593.66;4991846;28;20204;-72
2021/03/02 01:07:07;;;;;;;19.17;8.60;;;;;;;0.61;100.00;97591.06;4990263;28;20213;-72
2021/03/02 01:09:33;;;;;;;20.53;9.43;;;;;;;0.57;100.00;97589.56;4992343;28;20677;-72
2021/03/02 01:12:00;;;;;;;20.30;8.87;;;;;;;0.65;100.00;97595.19;4992359;28;20224;-72
2021/03/02 01:14:28;;;;;;;20.87;9.13;;;;;;;0.73;100.00;97587.81;4994396;28;20212;-72
2021/03/02 01:16:54;;;;;;;21.70;9.90;;;;;;;0.78;100.00;97590.97;4993981;28;20269;-72
2021/03/02 01:19:20;;;;;;;22.37;10.23;;;;;;;0.73;100.00;97590.41;4989175;28;20252;-72
2021/03/02 01:21:46;;;;;;;20.57;9.90;;;;;;;0.81;100.00;97583.03;4991721;28;20219;-72
2021/03/02 01:24:12;;;;;;;26.47;10.53;;;;;;;0.82;100.00;97587.28;4993100;28;20297;-72
2021/03/02 01:26:38;;;;;;;22.93;10.60;;;;;;;0.90;100.00;97587.69;4991043;28;20205;-72
2021/03/02 01:29:04;;;;;;;26.93;9.80;;;;;;;0.89;100.00;97591.19;4992244;28;20231;-72
2021/03/02 01:31:31;;;;;;;23.20;10.20;;;;;;;0.85;100.00;97584.53;4992042;28;20219;-72
2021/03/02 01:33:57;;;;;;;22.67;9.83;;;;;;;0.88;100.00;97584.34;4992515;28;20211;-72
2021/03/02 01:36:23;;;;;;;23.33;9.40;;;;;;;0.88;100.00;97589.53;4989723;28;20737;-72
2021/03/02 01:38:49;;;;;;;23.90;9.77;;;;;;;0.84;100.00;97580.25;4991162;28;20229;-72
2021/03/02 01:41:16;;;;;;;21.63;9.60;;;;;;;0.80;100.00;97586.53;4993414;28;20292;-72
2021/03/02 01:43:42;;;;;;;22.43;10.27;;;;;;;0.73;100.00;97586.03;4992703;28;20225;-72
2021/03/02 01:46:09;;;;;;;21.27;10.23;;;;;;;0.67;100.00;97588.13;4990310;28;20208;-72
2021/03/02 01:48:36;;;;;;;23.57;10.63;;;;;;;0.71;100.00;97589.63;4989510;28;20966;-72
2021/03/02 01:51:03;;;;;;;26.73;10.60;;;;;;;0.68;100.00;97592.41;4990859;28;20212;-72
2021/03/02 01:53:29;;;;;;;27.80;10.60;;;;;;;0.75;100.00;97591.13;4990394;28;20227;-73
2021/03/02 01:55:56;;;;;;;23.07;10.20;;;;;;;0.77;100.00;97586.72;4992276;28;20247;-73
2021/03/02 01:58:22;;;;;;;29.50;11.70;;;;;;;0.84;100.00;97594.06;4990493;28;20212;-72
2021/03/02 02:00:51;;;;;;;27.43;10.83;;;;;;;0.94;100.00;97591.78;4990165;28;20203;-72
2021/03/02 02:03:26;;;;;;;22.13;10.63;;;;;;;0.75;100.00;97591.13;4991941;28;20722;-72
2021/03/02 02:05:59;;;;;;;23.60;10.13;;;;;;;0.72;100.00;97591.31;4990130;28;20672;-72
2021/03/02 02:08:36;;;;;;;28.50;10.63;;;;;;;0.60;100.00;97594.59;4991235;28;20226;-72
2021/03/02 02:11:10;;;;;;;25.07;10.43;;;;;;;0.60;100.00;97594.59;4991179;28;20213;-72
2021/03/02 02:13:41;;;;;;;25.87;11.07;;;;;;;0.57;100.00;97597.34;4991191;28;20227;-72
2021/03/02 02:16:12;;;;;;;21.57;9.63;;;;;;;0.51;100.00;97594.25;4993856;28;20222;-72
2021/03/02 02:18:39;;;;;;;21.50;9.57;;;;;;;0.48;100.00;97597.84;4995096;28;20202;-72
2021/03/02 02:21:18;;;;;;;22.23;10.20;;;;;;;0.53;100.00;97595.84;4995862;28;20207;-72
2021/03/02 02:23:54;;;;;;;19.07;9.03;;;;;;;0.63;100.00;97589.22;4994933;28;20463;-72
2021/03/02 02:26:38;;;;;;;26.37;10.20;;;;;;;0.51;100.00;97597.69;4995292;28;20210;-72
2021/03/02 02:29:06;;;;;;;21.47;9.77;;;;;;;0.39;100.00;97592.34;4997425;28;20256;-72
2021/03/02 02:31:33;;;;;;;24.07;9.57;;;;;;;0.37;100.00;97592.41;4993758;28;20256;-72
2021/03/02 02:34:00;;;;;;;23.30;9.80;;;;;;;0.35;100.00;97594.25;4994478;28;20557;-72
2021/03/02 02:36:26;;;;;;;24.70;10.27;;;;;;;0.37;100.00;97589.81;4994903;28;20281;-72
2021/03/02 02:38:56;;;;;;;23.93;10.10;;;;;;;0.40;100.00;97592.25;4994924;28;20208;-72
2021/03/02 02:41:22;;;;;;;23.33;10.37;;;;;;;0.37;100.00;97592.41;4995624;28;20214;-72
2021/03/02 02:43:51;;;;;;;24.43;10.00;;;;;;;0.39;100.00;97598.34;4996336;28;20210;-72
2021/03/02 02:46:19;;;;;;;22.53;9.77;;;;;;;0.30;100.00;97585.88;4994470;28;20211;-72
2021/03/02 02:48:47;;;;;;;23.00;10.77;;;;;;;0.29;100.00;97584.19;4992818;28;20205;-72
2021/03/02 02:51:13;;;;;;;26.07;10.53;;;;;;;0.31;100.00;97576.38;4992106;28;20412;-72
2021/03/02 02:53:40;;;;;;;26.60;10.73;;;;;;;0.28;100.00;97577.38;4991074;28;20220;-72
2021/03/02 02:56:08;;;;;;;27.03;11.67;;;;;;;0.18;100.00;97576.19;4992669;28;20774;-72
2021/03/02 02:58:40;;;;;;;25.03;11.00;;;;;;;0.23;100.00;97574.19;4992486;28;20221;-72
2021/03/02 03:01:11;;;;;;;23.07;10.17;;;;;;;0.25;100.00;97574.91;4994555;28;20224;-72
2021/03/02 03:03:43;;;;;;;22.67;9.90;;;;;;;0.23;100.00;97579.38;4992778;28;20250;-72
2021/03/02 03:06:13;;;;;;;22.90;10.20;;;;;;;0.13;100.00;97575.59;4991122;28;20794;-72
2021/03/02 03:08:47;;;;;;;25.10;10.20;;;;;;;0.19;100.00;97577.88;4988289;28;20681;-72
2021/03/02 03:11:15;;;;;;;25.70;10.43;;;;;;;0.10;100.00;97574.91;4991282;28;20207;-72
2021/03/02 03:13:45;;;;;;;23.90;11.00;;;;;;;0.11;100.00;97569.63;4992119;28;20232;-72
2021/03/02 03:16:13;;;;;;;22.43;10.87;;;;;;;-0.02;100.00;97569.56;4992934;28;20227;-72
2021/03/02 03:18:44;;;;;;;23.63;10.17;;;;;;;-0.02;100.00;97576.41;4989610;28;20251;-72
2021/03/02 03:21:12;;;;;;;27.07;10.90;;;;;;;-0.01;100.00;97572.88;4990405;28;20256;-72
2021/03/02 03:23:40;;;;;;;27.63;11.50;;;;;;;0.05;100.00;97574.31;4993710;28;20275;-72
2021/03/02 03:26:06;;;;;;;28.80;11.97;;;;;;;0.06;100.00;97563.91;4990178;28;20203;-72
2021/03/02 03:28:33;;;;;;;29.30;11.73;;;;;;;0.24;100.00;97575.00;4992534;28;20217;-72
2021/03/02 03:31:00;;;;;;;32.77;13.73;;;;;;;0.35;100.00;97573.50;4989272;28;20198;-72
2021/03/02 03:33:29;;;;;;;26.97;12.67;;;;;;;0.34;100.00;97576.19;4991832;28;20222;-72
2021/03/02 03:35:55;;;;;;;28.30;12.37;;;;;;;0.39;100.00;97580.19;4990258;28;20227;-72
2021/03/02 03:38:21;;;;;;;28.47;12.27;;;;;;;0.34;100.00;97579.59;4992167;28;20686;-72
2021/03/02 03:40:48;;;;;;;47.93;19.13;;;;;;;0.30;100.00;97582.47;4990929;28;20225;-72
2021/03/02 03:43:13;;;;;;;56.53;19.87;;;;;;;0.27;100.00;97585.22;4993135;28;21023;-72
2021/03/02 03:45:39;;;;;;;48.10;17.17;;;;;;;0.28;100.00;97586.88;4992001;28;20205;-72
2021/03/02 03:48:07;;;;;;;56.17;19.47;;;;;;;0.28;100.00;97584.28;4991833;28;20350;-72
2021/03/02 03:50:33;;;;;;;33.27;13.57;;;;;;;0.29;100.00;97578.19;4994716;28;20275;-72
2021/03/02 03:53:02;;;;;;;26.67;12.30;;;;;;;0.33;100.00;97587.47;4991557;28;20237;-72
2021/03/02 03:55:32;;;;;;;31.17;12.23;;;;;;;0.41;100.00;97593.91;4989561;28;21099;-72
2021/03/02 03:57:58;;;;;;;31.47;12.70;;;;;;;0.38;100.00;97585.47;4991635;28;20208;-72
2021/03/02 04:00:25;;;;;;;30.17;11.40;;;;;;;0.25;100.00;97592.25;4990806;28;20207;-72
2021/03/02 04:02:51;;;;;;;30.40;12.27;;;;;;;0.13;100.00;97593.72;4988993;28;20289;-72
2021/03/02 04:05:18;;;;;;;28.57;11.93;;;;;;;0.13;100.00;97598.91;4988536;28;20207;-72
2021/03/02 04:07:47;;;;;;;26.97;10.93;;;;;;;0.00;100.00;97597.06;4990106;28;20203;-72
2021/03/02 04:10:14;;;;;;;29.60;11.13;;;;;;;-0.20;100.00;97597.25;4988802;28;20221;-72
2021/03/02 04:12:43;;;;;;;32.13;11.40;;;;;;;-0.18;100.00;97602.34;4993353;28;20230;-72
2021/03/02 04:15:11;;;;;;;31.87;12.73;;;;;;;-0.15;100.00;97600.44;4992141;28;20276;-72
2021/03/02 04:17:37;;;;;;;28.47;11.67;;;;;;;-0.03;100.00;97599.78;4991356;28;20195;-72
2021/03/02 04:20:05;;;;;;;30.67;11.30;;;;;;;-0.09;100.00;97607.06;4989759;28;20685;-72
2021/03/02 04:22:34;;;;;;;27.20;11.90;;;;;;;-0.05;100.00;97600.78;4991279;28;20227;-72
2021/03/02 04:25:01;;;;;;;26.33;11.77;;;;;;;0.00;100.00;97602.25;4987830;28;20204;-72
2021/03/02 04:27:27;;;;;;;30.87;11.90;;;;;;;-0.11;100.00;97603.72;4993239;28;20204;-72
2021/03/02 04:29:53;;;;;;;31.03;12.13;;;;;;;-0.15;100.00;97603.03;4988745;28;20208;-72
2021/03/02 04:32:19;;;;;;;36.90;14.83;;;;;;;-0.07;100.00;97605.22;4988795;28;20248;-72
2021/03/02 04:34:45;;;;;;;42.87;15.00;;;;;;;-0.03;100.00;97609.34;4990049;28;20204;-72
2021/03/02 04:37:11;;;;;;;39.10;14.20;;;;;;;-0.02;100.00;97615.25;4982522;28;20218;-72
2021/03/02 04:39:37;;;;;;;31.80;12.77;;;;;;;-0.06;100.00;97618.09;4989947;28;20203;-72
2021/03/02 04:42:04;;;;;;;32.43;12.77;;;;;;;-0.14;100.00;97624.59;4989770;28;20725;-72
2021/03/02 04:44:30;;;;;;;31.10;11.63;;;;;;;-0.18;100.00;97623.91;4988263;28;20233;-72
2021/03/02 04:46:56;;;;;;;25.93;10.70;;;;;;;-0.15;100.00;97628.09;4988376;28;20230;-72
2021/03/02 04:49:23;;;;;;;29.53;11.57;;;;;;;-0.14;100.00;97627.19;4990321;28;20241;-72
2021/03/02 04:51:48;;;;;;;25.87;11.10;;;;;;;-0.10;100.00;97623.50;4989685;28;20283;-72
2021/03/02 04:54:14;;;;;;;24.27;10.40;;;;;;;-0.02;100.00;97615.25;4985549;28;20295;-74
2021/03/02 04:56:40;;;;;;;25.30;11.50;;;;;;;-0.05;100.00;97617.19;4984532;28;20245;-72
2021/03/02 04:59:07;;;;;;;31.37;11.73;;;;;;;-0.07;100.00;97618.19;4984941;28;20209;-72
2021/03/02 05:01:33;;;;;;;31.50;11.70;;;;;;;-0.05;100.00;97618.94;4990285;28;21144;-72
2021/03/02 05:03:59;;;;;;;27.80;10.60;;;;;;;-0.15;100.00;97623.75;4991647;28;20209;-72
2021/03/02 05:06:25;;;;;;;24.93;10.23;;;;;;;-0.22;100.00;97624.97;4988556;28;20685;-72
2021/03/02 05:08:51;;;;;;;27.53;10.40;;;;;;;-0.27;100.00;97623.53;4989283;28;20220;-72
2021/03/02 05:11:18;;;;;;;28.93;11.00;;;;;;;-0.33;100.00;97621.25;4986532;28;20207;-72
2021/03/02 05:13:44;;;;;;;26.67;10.97;;;;;;;-0.39;100.00;97621.59;4988314;28;20229;-72
2021/03/02 05:16:11;;;;;;;31.80;10.83;;;;;;;-0.36;100.00;97618.84;4988215;28;20694;-72
2021/03/02 05:18:37;;;;;;;31.03;11.37;;;;;;;-0.29;100.00;97626.22;4983727;28;20207;-71
2021/03/02 05:21:03;;;;;;;33.97;12.93;;;;;;;-0.23;100.00;97619.88;4988986;28;20225;-71
2021/03/02 05:23:29;;;;;;;26.57;12.53;;;;;;;-0.26;100.00;97627.81;4989968;28;20242;-71
2021/03/02 05:25:55;;;;;;;30.07;12.03;;;;;;;-0.25;100.00;97627.72;4987844;28;20195;-72
2021/03/02 05:28:21;;;;;;;32.27;12.10;;;;;;;-0.29;100.00;97627.97;4991119;28;20226;-72
2021/03/02 05:30:47;;;;;;;34.13;13.70;;;;;;;-0.31;100.00;97625.44;4991743;28;20408;-72
2021/03/02 05:33:14;;;;;;;32.30;12.93;;;;;;;-0.31;100.00;97622.03;4989004;28;20226;-71
2021/03/02 05:35:40;;;;;;;29.53;12.57;;;;;;;-0.33;100.00;97621.25;4991112;28;20761;-71
2021/03/02 05:38:06;;;;;;;31.77;10.77;;;;;;;-0.63;100.00;97620.22;4988212;28;20250;-71
2021/03/02 05:40:32;;;;;;;24.33;10.27;;;;;;;-0.52;100.00;97617.94;4993026;28;20213;-71
2021/03/02 05:42:58;;;;;;;24.67;10.27;;;;;;;-0.61;100.00;97618.41;4993742;28;20292;-71
2021/03/02 05:45:25;;;;;;;29.33;12.00;;;;;;;-0.63;100.00;97626.22;4983746;28;20680;-71
2021/03/02 05:47:53;;;;;;;30.03;10.27;;;;;;;-0.65;100.00;97628.97;4983669;28;20212;-71
2021/03/02 05:50:20;;;;;;;26.13;10.63;;;;;;;-0.60;100.00;97620.06;4988472;28;20265;-72
2021/03/02 05:52:47;;;;;;;26.67;10.40;;;;;;;-0.62;100.00;97622.72;4984071;28;20239;-73
2021/03/02 05:55:14;;;;;;;31.20;11.27;;;;;;;-0.55;100.00;97625.84;4977574;28;20228;-72
2021/03/02 05:57:41;;;;;;;25.63;11.30;;;;;;;-0.54;100.00;97625.78;4983952;28;20262;-72
2021/03/02 06:00:08;;;;;;;28.77;11.17;;;;;;;-0.60;100.00;97635.59;4978501;28;20634;-72
2021/03/02 06:02:34;;;;;;;27.07;10.97;;;;;;;-0.57;100.00;97635.47;4979223;28;20226;-72
2021/03/02 06:05:00;;;;;;;25.60;10.13;;;;;;;-0.57;100.00;97636.28;4981856;28;20398;-72
2021/03/02 06:07:27;;;;;;;23.80;9.97;;;;;;;-0.55;100.00;97638.78;4988534;28;20718;-73
2021/03/02 06:09:53;;;;;;;25.77;10.83;;;;;;;-0.45;100.00;97646.03;4990807;28;20215;-73
2021/03/02 06:12:19;;;;;;;28.60;10.80;;;;;;;-0.62;100.00;97640.84;4986030;28;20238;-73
2021/03/02 06:14:45;;;;;;;23.77;10.93;;;;;;;-0.54;100.00;97648.25;4987481;28;20301;-73
2021/03/02 06:17:11;;;;;;;29.57;10.47;;;;;;;-0.54;100.00;97633.53;4981567;28;20639;-73
2021/03/02 06:19:42;;;;;;;29.03;10.33;;;;;;;-0.69;100.00;97655.94;4984979;28;20211;-73
2021/03/02 06:22:09;;;;;;;26.23;10.30;;;;;;;-0.63;100.00;97653.88;4989374;28;20226;-73
2021/03/02 06:24:41;;;;;;;22.63;10.43;;;;;;;-0.60;100.00;97645.94;4983701;28;20209;-72
2021/03/02 06:27:10;;;;;;;29.60;10.67;;;;;;;-0.49;100.00;97654.03;4986011;28;20198;-72
2021/03/02 06:29:36;;;;;;;27.97;10.77;;;;;;;-0.56;100.00;97647.47;4985312;28;20214;-72
2021/03/02 06:32:02;;;;;;;29.37;10.60;;;;;;;-0.51;100.00;97654.13;4980677;28;20231;-73
2021/03/02 06:34:28;;;;;;;29.73;10.80;;;;;;;-0.51;100.00;97659.28;4982640;28;20226;-73
2021/03/02 06:37:03;;;;;;;32.23;12.03;;;;;;;-0.41;100.00;97662.25;4982702;28;20219;-73
2021/03/02 06:39:32;;;;;;;27.03;11.13;;;;;;;-0.32;100.00;97656.59;4988696;28;20206;-73
2021/03/02 06:42:20;;;;;;;30.93;11.77;;;;;;;-0.25;100.00;97655.41;4988406;28;20272;-73
2021/03/02 06:44:47;;;;;;;32.90;12.40;;;;;;;-0.22;100.00;97655.22;4982987;28;21270;-73
2021/03/02 06:47:28;;;;;;;28.17;11.17;;;;;;;-0.41;100.00;97668.28;4984177;28;20215;-73
2021/03/02 06:49:54;;;;;;;32.27;11.23;;;;;;;-0.34;100.00;97666.22;4981073;28;20254;-73
2021/03/02 06:52:21;;;;;;;30.07;12.07;;;;;;;-0.15;100.00;97670.38;4982154;28;20293;-73
2021/03/02 06:54:48;;;;;;;30.37;12.03;;;;;;;-0.08;100.00;97670.91;4982533;28;20270;-73
2021/03/02 06:57:24;;;;;;;29.27;11.33;;;;;;;0.04;100.00;97665.94;4978181;28;20228;-73
2021/03/02 06:59:51;;;;;;;26.13;11.13;;;;;;;0.05;100.00;97668.44;4988991;28;20214;-73
2021/03/02 07:02:31;;;;;;;26.10;10.33;;;;;;;0.06;100.00;97659.75;4986070;28;20547;-73
2021/03/02 07:05:08;;;;;;;27.77;10.50;;;;;;;0.04;100.00;97671.94;4986756;28;20549;-73
2021/03/02 07:07:34;;;;;;;29.07;10.83;;;;;;;0.21;100.00;97669.31;4981145;28;20294;-73
2021/03/02 07:10:03;;;;;;;28.20;10.67;;;;;;;0.24;100.00;97665.72;4981738;28;20222;-73
2021/03/02 07:12:32;;;;;;;28.83;10.30;;;;;;;0.30;100.00;97679.19;4989717;28;20225;-73
2021/03/02 07:15:00;;;;;;;27.13;11.47;;;;;;;0.45;100.00;97675.81;4986142;28;20290;-73
2021/03/02 07:17:27;;;;;;;31.17;12.10;;;;;;;0.47;100.00;97680.91;4980670;28;20214;-73
2021/03/02 07:19:54;;;;;;;29.47;11.80;;;;;;;0.55;100.00;97678.72;4981516;28;20195;-73
2021/03/02 07:22:21;;;;;;;32.20;11.77;;;;;;;0.62;100.00;97683.50;4988623;28;20264;-73
2021/03/02 07:24:48;;;;;;;39.73;12.30;;;;;;;0.74;100.00;97680.28;4981494;28;20550;-73
2021/03/02 07:27:15;;;;;;;26.47;12.40;;;;;;;0.83;100.00;97683.19;4980218;28;20214;-73
2021/03/02 07:29:42;;;;;;;34.13;13.50;;;;;;;0.83;100.00;97690.16;4981562;28;20203;-73
2021/03/02 07:32:09;;;;;;;29.57;13.30;;;;;;;1.00;100.00;97687.47;4980868;28;20281;-73
2021/03/02 07:34:36;;;;;;;34.73;13.30;;;;;;;1.05;100.00;97688.06;4985438;28;20210;-73
2021/03/02 07:37:02;;;;;;;32.30;11.97;;;;;;;1.14;100.00;97692.75;4980209;28;20237;-73
2021/03/02 07:39:28;;;;;;;32.37;13.40;;;;;;;1.23;100.00;97699.09;4980988;28;20289;-73
2021/03/02 07:41:55;;;;;;;30.20;12.40;;;;;;;1.22;100.00;97694.81;4983010;28;20223;-73
2021/03/02 07:44:22;;;;;;;33.57;12.87;;;;;;;1.33;100.00;97696.81;4981859;28;20214;-73
2021/03/02 07:46:52;;;;;;;32.63;13.20;;;;;;;1.46;100.00;97693.41;4979330;28;20195;-73
2021/03/02 07:49:32;;;;;;;35.47;12.20;;;;;;;1.56;100.00;97697.16;4990559;28;20210;-73
2021/03/02 07:52:21;;;;;;;27.80;11.20;;;;;;;1.58;100.00;97700.53;4980259;28;20227;-73
2021/03/02 07:54:48;;;;;;;37.43;13.43;;;;;;;1.56;100.00;97699.78;4983725;28;20213;-73
2021/03/02 07:57:23;;;;;;;33.33;13.07;;;;;;;1.69;100.00;97702.50;4988056;28;20222;-73
2021/03/02 08:00:24;;;;;;;35.67;13.37;;;;;;;1.77;100.00;97703.75;4980119;28;20210;-73
2021/03/02 08:03:27;;;;;;;32.77;12.97;;;;;;;1.86;100.00;97700.63;4992190;28;21229;-73
2021/03/02 08:05:55;;;;;;;30.77;12.17;;;;;;;1.93;100.00;97697.56;4985415;28;20201;-73
2021/03/02 08:08:31;;;;;;;25.87;11.73;;;;;;;1.88;100.00;97706.53;4983999;28;20308;-73
2021/03/02 08:10:58;;;;;;;28.33;12.53;;;;;;;1.77;100.00;97703.75;4984536;28;20202;-73
2021/03/02 08:13:31;;;;;;;28.53;12.20;;;;;;;2.00;100.00;97708.47;4980683;28;20231;-73
2021/03/02 08:15:57;;;;;;;29.07;12.03;;;;;;;2.15;100.00;97704.94;4983271;28;20230;-73
2021/03/02 08:18:28;;;;;;;28.07;12.90;;;;;;;2.30;100.00;97704.03;4986309;28;20243;-73
2021/03/02 08:21:06;;;;;;;28.17;12.60;;;;;;;2.34;100.00;97713.31;4979856;28;20203;-73
2021/03/02 08:23:45;;;;;;;28.53;12.17;;;;;;;2.35;100.00;97712.41;4983931;28;20235;-73
2021/03/02 08:26:25;;;;;;;27.57;12.43;;;;;;;2.55;100.00;97711.09;4979450;28;20206;-73
2021/03/02 08:29:12;;;;;;;31.57;12.60;;;;;;;2.69;100.00;97711.09;4983971;28;20206;-73
2021/03/02 08:31:40;;;;;;;30.57;13.10;;;;;;;2.90;100.00;97709.75;4979575;28;20258;-74
2021/03/02 08:34:09;;;;;;;29.27;13.40;;;;;;;3.05;100.00;97714.00;4986691;28;20268;-74
2021/03/02 08:36:37;;;;;;;29.57;13.33;;;;;;;3.06;100.00;97718.28;4978863;28;20227;-74
2021/03/02 08:39:08;;;;;;;28.27;13.37;;;;;;;3.19;100.00;97717.41;4981936;28;21009;-74
2021/03/02 08:41:36;;;;;;;32.63;13.03;;;;;;;3.13;100.00;97719.56;4979892;28;20249;-74
2021/03/02 08:44:03;;;;;;;33.93;13.93;;;;;;;3.25;100.00;97716.22;4979946;28;20423;-74
2021/03/02 08:46:31;;;;;;;34.47;13.77;;;;;;;3.39;100.00;97716.19;4978975;28;20257;-74
2021/03/02 08:48:57;;;;;;;31.03;13.37;;;;;;;3.52;100.00;97711.84;4979435;28;20206;-74
2021/03/02 08:51:25;;;;;;;29.67;13.63;;;;;;;3.62;100.00;97714.56;4978761;28;20209;-74
2021/03/02 08:53:53;;;;;;;27.67;14.07;;;;;;;3.73;100.00;97708.69;4990739;28;20245;-74
2021/03/02 08:56:21;;;;;;;30.23;14.50;;;;;;;3.82;100.00;97706.31;4983058;28;20581;-74
2021/03/02 08:58:48;;;;;;;33.07;14.13;;;;;;;3.88;100.00;97711.13;4985618;28;20207;-74
2021/03/02 09:01:17;;;;;;;31.87;13.43;;;;;;;4.09;100.00;97714.09;4979316;28;20218;-74
2021/03/02 09:03:44;;;;;;;32.10;13.73;;;;;;;4.16;100.00;97707.50;4988400;28;20223;-74
2021/03/02 09:06:19;;;;;;;27.37;13.60;;;;;;;4.16;100.00;97708.31;4978083;28;20200;-74
2021/03/02 09:08:54;;;;;;;28.17;13.40;;;;;;;4.08;100.00;97708.00;4982198;28;20245;-74
2021/03/02 09:11:22;;;;;;;30.43;14.30;;;;;;;4.22;100.00;97704.50;4978695;28;20257;-74
2021/03/02 09:13:49;;;;;;;35.47;13.70;;;;;;;4.36;100.00;97708.66;4986393;28;20250;-74
2021/03/02 09:16:38;;;;;;;30.57;14.20;;;;;;;4.36;100.00;97702.63;4977903;28;20232;-74
2021/03/02 09:19:10;;;;;;;33.20;13.20;;;;;;;4.43;100.00;97694.28;4979207;28;20588;-74
2021/03/02 09:21:39;;;;;;;33.83;14.10;;;;;;;4.56;100.00;97712.53;4979286;28;20671;-71
2021/03/02 09:24:07;;;;;;;39.47;14.30;;;;;;;4.75;100.00;97699.88;4979189;28;20203;-71
2021/03/02 09:26:34;;;;;;;32.30;13.93;;;;;;;4.87;100.00;97702.47;4977871;28;20198;-71
2021/03/02 09:29:01;;;;;;;30.67;14.17;;;;;;;4.90;100.00;97705.72;4984204;28;20206;-71
2021/03/02 09:31:29;;;;;;;31.53;13.13;;;;;;;5.10;100.00;97712.13;4979949;28;20215;-71
2021/03/02 09:33:55;;;;;;;33.37;14.70;;;;;;;5.13;100.00;97710.16;4978160;28;20230;-71
2021/03/02 09:36:25;;;;;;;29.33;14.50;;;;;;;5.15;100.00;97710.03;4978300;28;20573;-71
2021/03/02 09:38:51;;;;;;;28.63;14.40;;;;;;;5.18;100.00;97702.81;4979277;28;20210;-71
2021/03/02 09:41:37;;;;;;;27.83;13.50;;;;;;;5.22;100.00;97706.03;4978369;28;20210;-71
2021/03/02 09:44:23;;;;;;;31.33;13.87;;;;;;;5.22;100.00;97714.72;4982652;28;20214;-71
2021/03/02 09:46:51;;;;;;;33.83;14.30;;;;;;;5.33;100.00;97725.22;4978095;28;20254;-71
2021/03/02 09:49:42;;;;;;;30.37;14.30;;;;;;;5.59;99.91;97719.00;4978686;28;20214;-71
2021/03/02 09:52:24;;;;;;;33.17;15.43;;;;;;;5.64;100.00;97722.09;4981835;28;20267;-71
2021/03/02 09:55:10;;;;;;;29.77;13.53;;;;;;;5.69;100.00;97722.59;4980700;28;20203;-71
2021/03/02 09:58:01;;;;;;;30.20;14.30;;;;;;;5.76;100.00;97719.44;4986476;28;20225;-72
2021/03/02 10:00:29;;;;;;;27.27;13.20;;;;;;;5.63;99.11;97717.81;4978116;28;20329;-72
2021/03/02 10:02:56;;;;;;;30.80;14.70;;;;;;;5.82;99.10;97719.00;4979196;28;20227;-72
2021/03/02 10:05:33;;;;;;;34.53;15.03;;;;;;;5.99;97.67;97717.78;4977836;28;20246;-72
2021/03/02 10:07:59;;;;;;;32.73;15.50;;;;;;;6.05;95.76;97721.59;4978756;28;20203;-72
2021/03/02 10:10:37;;;;;;;33.97;15.10;;;;;;;6.21;96.75;97716.91;4988357;28;20218;-71
2021/03/02 10:13:04;;;;;;;31.30;15.43;;;;;;;6.14;96.21;97725.31;4991679;28;20650;-72
2021/03/02 10:15:30;;;;;;;33.80;16.43;;;;;;;6.09;95.95;97723.03;4991752;28;20207;-71
2021/03/02 10:17:56;;;;;;;33.63;15.40;;;;;;;6.35;94.93;97721.94;4990634;28;20205;-73
2021/03/02 10:20:22;;;;;;;29.47;15.40;;;;;;;6.56;94.50;97717.69;4988628;28;20242;-71
2021/03/02 10:23:00;;;;;;;27.30;14.30;;;;;;;6.82;91.98;97716.50;4985979;28;20222;-71
2021/03/02 10:25:38;;;;;;;31.80;15.30;;;;;;;6.78;91.44;97721.16;4988604;28;20292;-71
2021/03/02 10:28:05;;;;;;;30.57;15.97;;;;;;;6.92;92.41;97714.84;4987580;28;20202;-71
2021/03/02 10:30:31;;;;;;;33.60;15.73;;;;;;;7.10;90.79;97722.09;4990215;28;20217;-71
2021/03/02 10:32:57;;;;;;;32.27;15.00;;;;;;;6.97;92.13;97720.56;4990378;28;20234;-71
2021/03/02 10:35:23;;;;;;;32.47;15.47;;;;;;;7.26;90.49;97724.38;4986371;28;20208;-71
2021/03/02 10:37:49;;;;;;;33.17;15.30;;;;;;;7.35;91.80;97720.03;4990965;28;20213;-71
2021/03/02 10:40:16;;;;;;;31.50;14.73;;;;;;;7.51;87.70;97725.75;4989427;28;20297;-71
2021/03/02 10:42:42;;;;;;;30.50;15.93;;;;;;;7.68;90.27;97724.41;4987724;28;20231;-74
2021/03/02 10:45:10;;;;;;;27.53;14.67;;;;;;;7.48;87.58;97723.34;4991703;28;20209;-74
2021/03/02 10:47:37;;;;;;;32.47;15.10;;;;;;;7.70;87.96;97718.06;4995775;28;20592;-74
2021/03/02 10:50:04;;;;;;;29.07;15.30;;;;;;;7.72;84.54;97724.00;4991312;28;20211;-74
2021/03/02 10:52:30;;;;;;;31.17;15.80;;;;;;;7.97;84.32;97719.28;4991841;28;20604;-74
2021/03/02 10:54:55;;;;;;;33.37;14.67;;;;;;;8.32;84.43;97724.28;4994465;28;20202;-74
2021/03/02 10:57:21;;;;;;;31.37;14.90;;;;;;;8.17;83.57;97720.28;4993482;28;20222;-74
2021/03/02 10:59:47;;;;;;;33.27;14.80;;;;;;;8.27;84.12;97718.56;4992616;28;20207;-74
2021/03/02 11:02:14;;;;;;;29.23;15.60;;;;;;;8.42;82.61;97719.94;4994061;28;20240;-74
2021/03/02 11:04:40;;;;;;;29.83;14.30;;;;;;;8.54;80.70;97715.31;4994752;28;20207;-74
2021/03/02 11:07:06;;;;;;;27.37;15.00;;;;;;;8.82;80.84;97719.91;4993997;28;20204;-74
2021/03/02 11:09:32;;;;;;;28.80;14.27;;;;;;;9.04;77.29;97714.47;4994869;28;20218;-74
2021/03/02 11:11:58;;;;;;;30.57;15.30;;;;;;;9.12;76.55;97717.28;4993011;28;20226;-74
2021/03/02 11:14:24;;;;;;;28.27;14.53;;;;;;;9.18;77.18;97706.22;4993359;28;20242;-72
2021/03/02 11:16:50;;;;;;;29.03;14.23;;;;;;;9.34;76.53;97703.91;4995475;28;20218;-74
2021/03/02 11:19:17;;;;;;;29.33;14.30;;;;;;;9.57;75.72;97697.47;4998144;28;20211;-74
2021/03/02 11:21:42;;;;;;;27.83;14.73;;;;;;;9.66;76.92;97701.91;4995100;28;20206;-72
2021/03/02 11:24:09;;;;;;;28.97;14.60;;;;;;;9.46;76.65;97698.41;4993816;28;20273;-72